Time;durP1;ratioP1;P1;durP2;ratioP2;P2;SDS_P1;SDS_P2;PMS_P1;PMS_P2;Temp;Humidity;BMP_temperature;BMP_pressure;BME280_temperature;BME280_humidity;BME280_pressure;Samples;Min_cycle;Max_cycle;Signal;HPM_P1;HPM_P2
2022/07/26 00:01:46;;;;;;;5.70;2.00;;;;;;;18.58;66.20;101194.66;5051345;28;20129;-74
2022/07/26 00:04:14;;;;;;;7.80;1.90;;;;;;;18.55;66.06;101187.69;5051448;28;20049;-73
2022/07/26 00:06:41;;;;;;;8.63;2.00;;;;;;;18.56;66.04;101191.22;5050576;28;20049;-72
2022/07/26 00:09:08;;;;;;;7.20;1.70;;;;;;;18.59;66.05;101194.56;5050756;28;20053;-72
2022/07/26 00:11:36;;;;;;;6.30;1.85;;;;;;;18.65;66.03;101187.16;5051540;28;20045;-72
2022/07/26 00:14:06;;;;;;;7.88;1.95;;;;;;;18.71;65.83;101197.47;5050549;28;20050;-72
2022/07/26 00:16:34;;;;;;;5.25;1.73;;;;;;;18.73;65.50;101198.22;5050739;28;20046;-72
2022/07/26 00:19:03;;;;;;;8.07;2.05;;;;;;;18.78;65.52;101201.47;5050537;28;20029;-72
2022/07/26 00:21:31;;;;;;;6.20;1.80;;;;;;;18.78;65.60;101196.13;5050375;28;20049;-74
2022/07/26 00:23:59;;;;;;;6.03;1.65;;;;;;;18.79;65.38;101197.84;5049874;28;20052;-73
2022/07/26 00:26:26;;;;;;;8.27;2.03;;;;;;;18.78;65.26;101199.69;5051238;28;20057;-73
2022/07/26 00:28:53;;;;;;;6.95;1.73;;;;;;;18.76;65.52;101200.72;5050775;28;20038;-73
2022/07/26 00:31:21;;;;;;;4.28;1.50;;;;;;;18.74;65.69;101192.78;5050637;28;20136;-73
2022/07/26 00:33:48;;;;;;;6.35;1.80;;;;;;;18.74;65.97;101194.63;5053555;28;20041;-73
2022/07/26 00:36:15;;;;;;;7.40;1.70;;;;;;;18.69;65.99;101197.56;5054597;28;20037;-74
2022/07/26 00:38:42;;;;;;;8.60;1.90;;;;;;;18.70;66.06;101198.41;5054058;28;20051;-73
2022/07/26 00:41:09;;;;;;;7.75;1.92;;;;;;;18.75;65.77;101199.00;5054541;28;20041;-72
2022/07/26 00:43:36;;;;;;;7.60;1.77;;;;;;;18.79;65.60;101203.19;5054094;28;20577;-72
2022/07/26 00:46:04;;;;;;;7.72;1.75;;;;;;;18.82;65.51;101202.19;5054235;28;20512;-73
2022/07/26 00:48:31;;;;;;;4.75;1.42;;;;;;;18.83;65.61;101195.84;5054229;28;20046;-72
2022/07/26 00:50:58;;;;;;;6.40;1.40;;;;;;;18.83;65.40;101194.06;5054208;28;20096;-72
2022/07/26 00:53:25;;;;;;;6.20;1.90;;;;;;;18.85;65.59;101196.63;5053475;28;20155;-72
2022/07/26 00:55:52;;;;;;;8.07;1.92;;;;;;;18.82;65.64;101195.00;5053717;28;20041;-72
2022/07/26 00:58:19;;;;;;;5.20;1.88;;;;;;;18.80;65.83;101191.56;5054292;28;20048;-72
2022/07/26 01:00:47;;;;;;;5.55;1.83;;;;;;;18.79;65.73;101200.53;5053227;28;20120;-72
2022/07/26 01:03:14;;;;;;;5.80;1.63;;;;;;;18.80;65.78;101199.56;5054236;28;20049;-74
2022/07/26 01:05:41;;;;;;;8.23;1.85;;;;;;;18.77;65.77;101203.31;5053868;28;20044;-74
2022/07/26 01:08:08;;;;;;;11.95;1.80;;;;;;;18.77;65.88;101202.44;5053436;28;20041;-74
2022/07/26 01:10:36;;;;;;;7.82;1.75;;;;;;;18.75;65.60;101193.66;5054080;28;20045;-74
2022/07/26 01:13:03;;;;;;;5.32;1.73;;;;;;;18.73;66.26;101196.41;5053753;28;20038;-73
2022/07/26 01:15:30;;;;;;;3.95;1.90;;;;;;;18.72;66.20;101200.03;5052810;28;20068;-75
2022/07/26 01:17:57;;;;;;;9.02;1.80;;;;;;;18.72;66.27;101194.69;5054065;28;20033;-74
2022/07/26 01:20:24;;;;;;;7.60;1.70;;;;;;;18.74;66.39;101197.28;5053431;28;20049;-74
2022/07/26 01:22:51;;;;;;;10.02;1.98;;;;;;;18.68;66.49;101193.16;5053026;28;20050;-74
2022/07/26 01:25:30;;;;;;;10.18;2.20;;;;;;;18.65;66.75;101187.16;5054211;28;20050;-72
2022/07/26 01:27:57;;;;;;;11.68;1.90;;;;;;;18.59;66.79;101191.88;5053069;28;20115;-74
2022/07/26 01:30:24;;;;;;;8.77;2.00;;;;;;;18.59;66.91;101188.38;5053336;28;20064;-75
2022/07/26 01:32:51;;;;;;;7.90;2.13;;;;;;;18.57;67.29;101188.44;5053049;28;20046;-72
2022/07/26 01:35:19;;;;;;;6.80;2.15;;;;;;;18.54;67.18;101182.44;5052920;28;20041;-74
2022/07/26 01:37:46;;;;;;;13.70;2.35;;;;;;;18.52;67.10;101179.84;5053925;28;20048;-74
2022/07/26 01:40:14;;;;;;;8.10;2.28;;;;;;;18.54;67.67;101185.09;5053360;28;20464;-73
2022/07/26 01:42:41;;;;;;;8.98;2.13;;;;;;;18.51;67.50;101183.47;5053136;28;20041;-71
2022/07/26 01:45:10;;;;;;;7.85;2.03;;;;;;;18.50;67.74;101184.41;5052275;28;20884;-72
2022/07/26 01:47:39;;;;;;;9.65;2.28;;;;;;;18.50;67.89;101188.91;5053516;28;20034;-72
2022/07/26 01:50:08;;;;;;;7.65;1.98;;;;;;;18.46;68.14;101181.06;5052381;28;20512;-74
2022/07/26 01:52:36;;;;;;;7.35;2.08;;;;;;;18.42;68.04;101187.53;5052300;28;20033;-75
2022/07/26 01:55:03;;;;;;;6.95;2.13;;;;;;;18.44;68.46;101190.97;5053257;28;20045;-73
2022/07/26 01:57:30;;;;;;;6.88;2.03;;;;;;;18.39;68.54;101197.53;5052231;28;20033;-74
2022/07/26 01:59:58;;;;;;;7.30;1.85;;;;;;;18.38;68.19;101196.69;5053075;28;20420;-74
2022/07/26 02:02:25;;;;;;;9.52;1.90;;;;;;;18.40;68.38;101193.91;5053050;28;20053;-73
2022/07/26 02:04:59;;;;;;;9.57;1.75;;;;;;;18.37;68.31;101202.97;5053190;28;20041;-71
2022/07/26 02:07:37;;;;;;;10.32;2.00;;;;;;;18.40;68.34;101201.91;5053321;28;20045;-72
2022/07/26 02:10:06;;;;;;;9.43;1.70;;;;;;;18.40;68.53;101197.44;5053533;28;20525;-73
2022/07/26 02:12:33;;;;;;;9.65;2.00;;;;;;;18.40;68.54;101205.47;5052052;28;20617;-73
2022/07/26 02:15:02;;;;;;;8.13;1.90;;;;;;;18.37;68.84;101212.75;5052862;28;20048;-74
2022/07/26 02:17:29;;;;;;;9.80;2.20;;;;;;;18.36;69.08;101217.25;5052528;28;20046;-74
2022/07/26 02:19:56;;;;;;;8.27;2.20;;;;;;;18.33;69.51;101216.56;5052529;28;20062;-74
2022/07/26 02:22:23;;;;;;;6.50;1.92;;;;;;;18.25;70.42;101220.53;5052383;28;20071;-74
2022/07/26 02:24:50;;;;;;;8.73;2.28;;;;;;;18.12;71.68;101216.84;5053144;28;20068;-73
2022/07/26 02:27:18;;;;;;;8.18;2.20;;;;;;;17.99;72.96;101225.50;5051361;28;20067;-74
2022/07/26 02:29:45;;;;;;;10.85;2.95;;;;;;;17.83;73.90;101216.63;5053220;28;20049;-73
2022/07/26 02:32:12;;;;;;;12.85;3.17;;;;;;;17.68;74.70;101227.16;5052336;28;20041;-73
2022/07/26 02:34:40;;;;;;;8.30;2.88;;;;;;;17.59;75.56;101225.00;5052632;28;20544;-73
2022/07/26 02:37:07;;;;;;;11.23;3.03;;;;;;;17.47;76.09;101229.19;5052486;28;20045;-73
2022/07/26 02:39:34;;;;;;;13.30;3.38;;;;;;;17.44;76.71;101223.16;5052491;28;20046;-73
2022/07/26 02:42:02;;;;;;;14.18;3.60;;;;;;;17.42;77.13;101228.56;5052081;28;20048;-73
2022/07/26 02:44:29;;;;;;;10.98;3.10;;;;;;;17.39;77.52;101226.94;5052705;28;20045;-73
2022/07/26 02:46:56;;;;;;;9.95;3.33;;;;;;;17.43;77.61;101232.94;5067495;28;20107;-73
2022/07/26 02:49:24;;;;;;;11.18;3.22;;;;;;;17.44;77.74;101233.84;5032756;28;20042;-73
2022/07/26 02:51:56;;;;;;;12.35;3.10;;;;;;;17.44;77.76;101236.50;5035469;28;20042;-73
2022/07/26 02:54:24;;;;;;;10.15;3.25;;;;;;;17.45;77.82;101235.56;5052267;28;20519;-73
2022/07/26 02:56:51;;;;;;;8.52;2.92;;;;;;;17.44;78.15;101234.69;5050851;28;20046;-73
2022/07/26 02:59:18;;;;;;;8.90;3.13;;;;;;;17.45;77.82;101238.22;5051525;28;20045;-73
2022/07/26 03:01:47;;;;;;;8.68;3.15;;;;;;;17.46;77.77;101237.25;5051255;28;20072;-73
2022/07/26 03:04:14;;;;;;;10.70;3.42;;;;;;;17.46;77.67;101240.78;5051854;28;20507;-74
2022/07/26 03:06:41;;;;;;;9.68;3.22;;;;;;;17.48;77.70;101246.03;5051810;28;20100;-75
2022/07/26 03:09:08;;;;;;;10.63;3.28;;;;;;;17.50;77.56;101238.81;5052374;28;20068;-75
2022/07/26 03:11:35;;;;;;;12.82;3.10;;;;;;;17.53;77.39;101249.34;5051994;28;20044;-74
2022/07/26 03:14:03;;;;;;;9.07;2.45;;;;;;;17.54;77.34;101243.06;5051577;28;20038;-74
2022/07/26 03:16:30;;;;;;;9.48;3.25;;;;;;;17.55;77.52;101252.75;5052107;28;20044;-74
2022/07/26 03:18:59;;;;;;;8.82;3.35;;;;;;;17.53;77.46;101246.66;5050845;28;20034;-73
2022/07/26 03:21:27;;;;;;;14.63;3.85;;;;;;;17.54;77.31;101249.25;5050191;28;20125;-73
2022/07/26 03:23:54;;;;;;;11.85;3.55;;;;;;;17.53;77.25;101254.66;5050921;28;20050;-73
2022/07/26 03:26:21;;;;;;;11.93;3.17;;;;;;;17.51;77.43;101262.72;5050179;28;20029;-73
2022/07/26 03:28:52;;;;;;;10.77;2.88;;;;;;;17.53;77.34;101257.31;5050681;28;20038;-73
2022/07/26 03:31:22;;;;;;;9.43;2.78;;;;;;;17.52;77.33;101264.44;5050615;28;20112;-73
2022/07/26 03:33:49;;;;;;;8.68;2.67;;;;;;;17.54;77.26;101272.38;5050992;28;20045;-73
2022/07/26 03:36:16;;;;;;;14.57;3.95;;;;;;;17.53;77.33;101268.00;5052246;28;20216;-75
2022/07/26 03:38:43;;;;;;;16.05;3.67;;;;;;;17.57;77.12;101279.34;5051540;28;20178;-74
2022/07/26 03:41:10;;;;;;;14.05;3.50;;;;;;;17.56;76.90;101269.63;5050137;28;20556;-74
2022/07/26 03:43:40;;;;;;;8.50;2.92;;;;;;;17.58;77.00;101281.91;5049318;28;20124;-75
2022/07/26 03:46:07;;;;;;;10.90;3.05;;;;;;;17.53;77.02;101274.16;5051560;28;20125;-75
2022/07/26 03:48:35;;;;;;;11.93;3.28;;;;;;;17.52;77.00;101282.25;5051153;28;20042;-76
2022/07/26 03:51:02;;;;;;;8.68;3.05;;;;;;;17.50;77.15;101281.47;5051836;28;20482;-75
2022/07/26 03:53:29;;;;;;;9.45;3.05;;;;;;;17.47;77.12;101276.28;5051486;28;20048;-75
2022/07/26 03:58:44;;;;;;;17.00;3.45;;;;;;;17.40;77.08;101283.72;5050620;28;20045;-72
2022/07/26 04:01:11;;;;;;;17.15;3.75;;;;;;;17.34;77.21;101276.97;5067090;28;20046;-72
2022/07/26 04:03:38;;;;;;;16.95;3.72;;;;;;;17.34;77.48;101276.06;5050627;28;20040;-74
2022/07/26 04:06:13;;;;;;;15.82;4.00;;;;;;;17.32;77.68;101281.50;5051625;28;20034;-74
2022/07/26 04:08:41;;;;;;;11.38;3.60;;;;;;;17.31;77.49;101277.09;5053621;28;20582;-75
2022/07/26 04:11:09;;;;;;;15.25;4.00;;;;;;;17.31;77.77;101289.53;5055222;28;20037;-74
2022/07/26 04:13:36;;;;;;;11.80;3.60;;;;;;;17.28;77.87;101287.91;5053646;28;20040;-75
2022/07/26 04:16:04;;;;;;;17.42;3.70;;;;;;;17.27;78.17;101290.66;5054180;28;20072;-73
2022/07/26 04:18:31;;;;;;;13.88;3.85;;;;;;;17.28;78.22;101297.72;5054119;28;20049;-75
2022/07/26 04:20:58;;;;;;;17.60;4.18;;;;;;;17.29;78.51;101292.31;5069958;28;20087;-75
2022/07/26 04:23:25;;;;;;;15.10;4.25;;;;;;;17.35;78.60;101293.78;5054491;28;20476;-75
2022/07/26 04:25:53;;;;;;;13.27;4.28;;;;;;;17.39;78.47;101290.03;5055072;28;20047;-75
2022/07/26 04:28:20;;;;;;;11.73;4.00;;;;;;;17.46;78.34;101288.75;5053395;28;20068;-75
2022/07/26 04:30:49;;;;;;;15.15;4.15;;;;;;;17.54;78.20;101299.88;5054520;28;20038;-73
2022/07/26 04:33:17;;;;;;;11.70;4.18;;;;;;;17.58;77.93;101291.72;5052888;28;20041;-74
2022/07/26 04:35:44;;;;;;;16.60;4.47;;;;;;;17.66;77.90;101297.50;5052673;28;20081;-73
2022/07/26 04:38:11;;;;;;;15.80;4.32;;;;;;;17.72;77.72;101302.50;5054023;28;20049;-75
2022/07/26 04:40:38;;;;;;;15.73;4.72;;;;;;;17.80;77.67;101305.66;5054413;28;20065;-73
2022/07/26 04:43:08;;;;;;;31.65;5.47;;;;;;;17.82;77.54;101301.06;5053617;28;20092;-74
2022/07/26 04:45:42;;;;;;;10.85;3.95;;;;;;;17.88;77.60;101304.38;5053941;28;20053;-73
2022/07/26 04:48:09;;;;;;;18.25;4.85;;;;;;;17.92;77.36;101306.78;5073022;28;20072;-74
2022/07/26 04:50:37;;;;;;;14.45;4.10;;;;;;;17.96;77.20;101304.81;5059387;28;20037;-73
2022/07/26 04:53:04;;;;;;;17.27;4.43;;;;;;;18.02;77.08;101307.16;5059965;28;20053;-71
2022/07/26 04:55:34;;;;;;;13.00;4.22;;;;;;;18.17;76.86;101310.81;5054568;28;20489;-72
2022/07/26 04:58:01;;;;;;;20.05;4.80;;;;;;;18.23;76.85;101317.63;5053579;28;20037;-71
2022/07/26 05:00:28;;;;;;;15.73;4.30;;;;;;;18.27;76.44;101316.50;5056903;28;20112;-71
2022/07/26 05:02:58;;;;;;;29.92;5.75;;;;;;;18.35;76.64;101313.44;5054072;28;20046;-72
2022/07/26 05:05:29;;;;;;;10.07;3.80;;;;;;;18.41;76.26;101313.94;5052879;28;20049;-70
2022/07/26 05:08:00;;;;;;;17.33;4.50;;;;;;;18.42;75.86;101310.31;5042763;28;20048;-72
2022/07/26 05:10:37;;;;;;;18.63;4.53;;;;;;;18.53;76.02;101317.72;5053656;28;20033;-71
2022/07/26 05:13:06;;;;;;;18.77;4.78;;;;;;;18.57;75.69;101324.59;5053585;28;20045;-71
2022/07/26 05:15:38;;;;;;;9.40;4.03;;;;;;;18.60;75.79;101327.09;5054056;28;20046;-71
2022/07/26 05:18:09;;;;;;;25.05;5.60;;;;;;;18.62;75.67;101322.53;5046481;28;20045;-71
2022/07/26 05:20:39;;;;;;;14.57;4.95;;;;;;;18.61;75.70;101328.81;5054562;28;20060;-70
2022/07/26 05:23:07;;;;;;;13.75;4.53;;;;;;;18.64;75.58;101330.44;5061265;28;20045;-70
2022/07/26 05:25:35;;;;;;;12.18;4.22;;;;;;;18.61;75.54;101328.81;5053883;28;20517;-70
2022/07/26 05:28:02;;;;;;;18.27;4.88;;;;;;;18.57;75.32;101329.09;5053359;28;20038;-70
2022/07/26 05:30:30;;;;;;;17.08;5.10;;;;;;;18.63;75.37;101326.94;5053629;28;20048;-70
2022/07/26 05:32:57;;;;;;;15.48;4.90;;;;;;;18.77;75.06;101327.97;5053835;28;20466;-71
2022/07/26 05:35:24;;;;;;;12.07;4.55;;;;;;;19.06;74.43;101331.63;5053446;28;20532;-70
2022/07/26 05:37:51;;;;;;;16.45;4.95;;;;;;;20.44;70.63;101317.94;5052077;28;20049;-70
2022/07/26 05:40:18;;;;;;;14.65;4.40;;;;;;;22.76;64.33;101327.13;5054788;28;20037;-71
2022/07/26 05:42:45;;;;;;;9.93;4.05;;;;;;;24.51;58.85;101321.72;5051955;28;20045;-71
2022/07/26 05:45:12;;;;;;;16.23;4.15;;;;;;;25.37;55.60;101326.28;5052379;28;20041;-71
2022/07/26 05:47:39;;;;;;;25.02;4.63;;;;;;;26.66;50.46;101324.00;5052330;28;20125;-71
2022/07/26 05:50:14;;;;;;;16.83;3.88;;;;;;;27.71;47.75;101324.25;5051770;28;20048;-71
2022/07/26 05:52:42;;;;;;;16.85;4.25;;;;;;;28.47;45.99;101319.63;5051399;28;20044;-71
2022/07/26 05:55:09;;;;;;;11.85;4.03;;;;;;;28.96;43.94;101319.28;5051891;28;20044;-71
2022/07/26 05:57:40;;;;;;;11.68;3.67;;;;;;;29.50;42.94;101326.50;5050996;28;20526;-71
2022/07/26 06:00:09;;;;;;;12.68;3.70;;;;;;;29.70;41.49;101335.31;5051814;28;21021;-71
2022/07/26 06:02:41;;;;;;;10.75;3.65;;;;;;;29.92;40.87;101336.59;5051833;28;20033;-73
2022/07/26 06:05:08;;;;;;;11.55;3.58;;;;;;;30.00;40.53;101344.00;5052470;28;20049;-73
2022/07/26 06:07:35;;;;;;;12.70;3.55;;;;;;;30.01;40.36;101342.97;5052324;28;20044;-73
2022/07/26 06:10:03;;;;;;;9.80;3.28;;;;;;;29.98;39.38;101348.72;5051907;28;20051;-72
2022/07/26 06:12:31;;;;;;;10.80;3.17;;;;;;;29.19;40.73;101351.38;5052131;28;20038;-65
2022/07/26 06:14:58;;;;;;;14.73;3.72;;;;;;;26.89;45.50;101345.41;5050473;28;20037;-65
2022/07/26 06:17:28;;;;;;;12.88;4.10;;;;;;;24.94;50.23;101353.19;5049884;28;20042;-65
2022/07/26 06:19:57;;;;;;;22.15;3.83;;;;;;;23.66;54.23;101360.72;5050894;28;20185;-65
2022/07/26 06:22:25;;;;;;;19.05;4.35;;;;;;;22.82;57.28;101364.31;5051278;28;20060;-65
2022/07/26 06:24:52;;;;;;;18.38;4.90;;;;;;;22.29;58.90;101370.75;5050020;28;20086;-65
2022/07/26 06:27:20;;;;;;;28.63;5.50;;;;;;;22.06;59.98;101375.09;5051268;28;20041;-65
2022/07/26 06:29:47;;;;;;;13.20;3.28;;;;;;;21.77;60.27;101371.75;5050051;28;20053;-65
2022/07/26 06:32:15;;;;;;;9.07;2.95;;;;;;;21.57;61.48;101369.44;5049886;28;22039;-64
2022/07/26 06:34:42;;;;;;;10.95;3.05;;;;;;;21.35;62.28;101367.38;5051449;28;20041;-64
2022/07/26 06:37:09;;;;;;;9.13;3.00;;;;;;;21.18;62.89;101370.34;5051728;28;20038;-64
2022/07/26 06:39:36;;;;;;;14.18;3.13;;;;;;;21.04;63.19;101368.59;5051590;28;20084;-64
2022/07/26 06:42:03;;;;;;;13.43;3.05;;;;;;;20.86;63.58;101368.81;5051478;28;20048;-64
2022/07/26 06:44:30;;;;;;;14.15;3.42;;;;;;;20.82;64.25;101369.13;5051642;28;20088;-65
2022/07/26 06:46:57;;;;;;;35.17;4.78;;;;;;;20.81;64.12;101370.13;5051411;28;20037;-65
2022/07/26 06:49:24;;;;;;;20.08;4.30;;;;;;;20.76;63.98;101365.03;5064900;28;20505;-65
2022/07/26 06:51:56;;;;;;;24.92;4.47;;;;;;;20.77;64.71;101366.75;5051575;28;20112;-65
2022/07/26 06:54:23;;;;;;;31.20;4.38;;;;;;;20.85;64.08;101374.28;5047613;28;20054;-65
2022/07/26 06:56:50;;;;;;;13.77;2.78;;;;;;;20.91;63.84;101376.56;5050488;28;20136;-66
2022/07/26 06:59:17;;;;;;;38.42;4.03;;;;;;;21.02;63.44;101375.88;5047410;28;20052;-65
2022/07/26 07:01:44;;;;;;;20.10;3.28;;;;;;;21.06;62.65;101378.25;5046083;28;20560;-65
2022/07/26 07:04:24;;;;;;;27.35;3.25;;;;;;;21.15;62.58;101384.81;5046072;28;20042;-65
2022/07/26 07:06:51;;;;;;;16.85;2.72;;;;;;;21.03;62.84;101388.31;5046994;28;20050;-64
2022/07/26 07:09:19;;;;;;;6.97;2.10;;;;;;;20.82;62.09;101393.22;5046750;28;20040;-64
2022/07/26 07:11:51;;;;;;;11.88;2.60;;;;;;;20.75;62.56;101385.59;5047268;28;20049;-64
2022/07/26 07:14:26;;;;;;;10.70;2.53;;;;;;;20.81;62.17;101389.72;5047961;28;20041;-64
2022/07/26 07:16:54;;;;;;;8.70;2.50;;;;;;;21.02;62.62;101386.59;5047540;28;20081;-64
2022/07/26 07:19:22;;;;;;;5.82;2.70;;;;;;;21.29;61.51;101393.75;5046985;28;20049;-64
2022/07/26 07:21:49;;;;;;;12.60;3.42;;;;;;;21.32;61.55;101390.88;5046498;28;20045;-64
2022/07/26 07:24:17;;;;;;;39.35;4.78;;;;;;;21.43;60.47;101393.69;5047131;28;20409;-65
2022/07/26 07:26:44;;;;;;;12.52;2.70;;;;;;;21.66;59.23;101388.63;5048153;28;20046;-65
2022/07/26 07:29:13;;;;;;;5.63;2.53;;;;;;;21.59;59.55;101398.91;5046801;28;20588;-65
2022/07/26 07:31:40;;;;;;;6.65;2.63;;;;;;;21.50;59.53;101408.38;5046563;28;20449;-65
2022/07/26 07:34:17;;;;;;;8.88;3.05;;;;;;;21.33;59.39;101398.78;5046868;28;20163;-65
2022/07/26 07:36:45;;;;;;;6.30;3.13;;;;;;;21.40;58.93;101400.13;5047441;28;20040;-65
2022/07/26 07:39:14;;;;;;;5.35;3.08;;;;;;;21.60;58.82;101406.00;5046743;28;20054;-65
2022/07/26 07:41:45;;;;;;;7.82;3.15;;;;;;;21.75;58.25;101403.19;5047090;28;20559;-65
2022/07/26 07:44:13;;;;;;;6.50;3.63;;;;;;;21.74;58.20;101406.84;5046458;28;20050;-64
2022/07/26 07:46:40;;;;;;;10.88;4.10;;;;;;;21.63;58.04;101392.34;5046839;28;20069;-64
2022/07/26 07:49:09;;;;;;;10.20;4.45;;;;;;;21.65;57.89;101403.00;5047939;28;20041;-65
2022/07/26 07:51:37;;;;;;;7.90;3.80;;;;;;;21.84;57.32;101395.38;5049040;28;20073;-64
2022/07/26 07:54:05;;;;;;;8.13;3.92;;;;;;;21.94;57.06;101398.28;5047266;28;20059;-64
2022/07/26 07:56:34;;;;;;;11.93;3.72;;;;;;;22.07;57.31;101416.22;5047028;28;20040;-65
2022/07/26 07:59:03;;;;;;;7.10;3.35;;;;;;;22.23;57.29;101413.31;5048098;28;20052;-65
2022/07/26 08:01:35;;;;;;;11.02;3.58;;;;;;;22.39;56.74;101410.38;5048753;28;20065;-65
2022/07/26 08:04:12;;;;;;;10.60;3.10;;;;;;;22.46;56.14;101409.00;5047191;28;20111;-65
2022/07/26 08:06:40;;;;;;;8.07;3.42;;;;;;;22.24;55.35;101407.81;5047934;28;20045;-65
2022/07/26 08:09:07;;;;;;;30.80;4.78;;;;;;;21.96;56.30;101412.44;5047602;28;20049;-65
2022/07/26 08:11:35;;;;;;;13.85;3.33;;;;;;;21.73;57.13;101414.03;5051096;28;20045;-65
2022/07/26 08:14:07;;;;;;;12.23;3.60;;;;;;;21.50;58.20;101418.28;5045562;28;20046;-64
2022/07/26 08:16:35;;;;;;;21.25;5.55;;;;;;;21.28;59.73;101418.81;5047340;28;20041;-64
2022/07/26 08:19:03;;;;;;;22.63;5.13;;;;;;;21.18;60.29;101408.72;5046013;28;20096;-65
2022/07/26 08:21:33;;;;;;;7.40;4.15;;;;;;;21.09;60.78;101422.72;5048583;28;20053;-64
2022/07/26 08:24:00;;;;;;;15.45;4.18;;;;;;;21.03;60.56;101426.66;5048054;28;20045;-64
2022/07/26 08:26:27;;;;;;;8.60;4.00;;;;;;;20.95;60.57;101420.97;5047367;28;20037;-64
2022/07/26 08:28:55;;;;;;;18.20;4.30;;;;;;;20.82;61.40;101430.75;5048385;28;20041;-65
2022/07/26 08:31:27;;;;;;;7.93;3.45;;;;;;;20.66;61.99;101446.91;5046882;28;20034;-65
2022/07/26 08:33:55;;;;;;;8.30;3.00;;;;;;;20.45;64.43;101464.25;5046308;28;20039;-65
2022/07/26 08:36:23;;;;;;;5.85;2.78;;;;;;;20.09;66.90;101468.25;5048778;28;20042;-66
2022/07/26 08:38:57;;;;;;;13.48;2.83;;;;;;;19.51;69.98;101472.53;5046179;28;20091;-65
2022/07/26 08:41:24;;;;;;;6.05;1.95;;;;;;;18.97;72.17;101473.78;5046138;28;20039;-65
2022/07/26 08:43:53;;;;;;;2.95;1.30;;;;;;;18.59;74.20;101471.38;5045945;28;20038;-64
2022/07/26 08:46:23;;;;;;;9.05;1.40;;;;;;;18.37;76.02;101479.66;5045798;28;20049;-63
2022/07/26 08:48:58;;;;;;;2.47;0.82;;;;;;;18.25;78.16;101490.06;5046146;28;20038;-64
2022/07/26 08:51:26;;;;;;;2.08;1.05;;;;;;;18.19;79.02;101489.50;5046646;28;20111;-64
2022/07/26 08:54:00;;;;;;;2.67;0.90;;;;;;;18.17;78.56;101494.91;5046776;28;20065;-64
2022/07/26 08:56:35;;;;;;;3.20;1.10;;;;;;;18.15;79.13;101497.66;5049381;28;20042;-63
2022/07/26 08:59:15;;;;;;;4.20;1.20;;;;;;;18.26;79.32;101501.59;5049504;28;20045;-64
2022/07/26 09:02:07;;;;;;;3.88;1.00;;;;;;;18.51;79.59;101497.63;5049484;28;20037;-64
2022/07/26 09:04:46;;;;;;;2.22;1.00;;;;;;;18.69;77.59;101503.75;5049465;28;20048;-64
2022/07/26 09:07:20;;;;;;;4.32;0.93;;;;;;;18.92;76.74;101510.53;5050379;28;20030;-64
2022/07/26 09:09:53;;;;;;;2.55;0.90;;;;;;;19.19;75.98;101507.31;5051369;28;20125;-64
2022/07/26 09:12:23;;;;;;;4.00;0.90;;;;;;;19.55;76.35;101516.84;5050049;28;20045;-64
2022/07/26 09:14:51;;;;;;;4.72;1.00;;;;;;;19.80;75.25;101516.28;5050444;28;20287;-64
2022/07/26 09:17:21;;;;;;;5.22;1.02;;;;;;;20.15;72.91;101512.47;5049722;28;20034;-65
2022/07/26 09:20:13;;;;;;;5.15;0.98;;;;;;;20.28;71.64;101509.94;5048481;28;20539;-64
2022/07/26 09:23:07;;;;;;;2.33;0.80;;;;;;;20.32;69.80;101519.50;5044583;28;20151;-65
2022/07/26 09:25:40;;;;;;;3.58;0.90;;;;;;;20.28;70.66;101528.69;5063130;28;20131;-64
2022/07/26 09:28:28;;;;;;;4.32;0.90;;;;;;;20.35;71.29;101527.34;5048978;28;20563;-65
2022/07/26 09:31:04;;;;;;;3.30;0.82;;;;;;;20.44;69.36;101533.97;5049305;28;20099;-65
2022/07/26 09:33:45;;;;;;;4.45;0.98;;;;;;;20.55;70.03;101541.34;5053245;28;20926;-63
2022/07/26 09:36:19;;;;;;;2.08;0.60;;;;;;;20.56;69.32;101535.88;5045215;28;20533;-64
2022/07/26 09:38:57;;;;;;;2.13;0.60;;;;;;;20.69;69.87;101544.03;5043756;28;20045;-65
2022/07/26 09:41:35;;;;;;;2.72;0.80;;;;;;;20.69;68.66;101537.78;5048964;28;21086;-66
2022/07/26 09:44:23;;;;;;;2.55;0.80;;;;;;;20.40;68.59;101554.69;5047849;28;20073;-66
2022/07/26 09:46:57;;;;;;;5.63;1.00;;;;;;;20.08;71.20;101562.88;5047610;28;20045;-64
2022/07/26 09:49:25;;;;;;;3.67;0.98;;;;;;;19.91;72.23;101560.28;5049031;28;20047;-65
2022/07/26 09:52:19;;;;;;;2.25;0.65;;;;;;;19.79;71.91;101562.69;5064632;28;20124;-64
2022/07/26 09:54:50;;;;;;;0.77;0.30;;;;;;;19.61;71.01;101563.75;5048006;28;20041;-64
2022/07/26 09:57:20;;;;;;;1.02;0.50;;;;;;;19.35;72.48;101569.63;5049797;28;20046;-64
2022/07/26 09:59:47;;;;;;;2.72;0.60;;;;;;;19.13;72.78;101571.81;5050047;28;20594;-65
2022/07/26 10:02:14;;;;;;;2.35;0.85;;;;;;;18.93;74.66;101574.59;5048454;28;20044;-65
2022/07/26 10:04:42;;;;;;;1.75;0.65;;;;;;;18.87;75.49;101574.03;5048941;28;20045;-65
2022/07/26 10:07:11;;;;;;;1.05;0.63;;;;;;;18.77;74.94;101573.69;5045656;28;20043;-64
2022/07/26 10:09:58;;;;;;;1.00;0.60;;;;;;;18.69;75.94;101573.19;5064916;28;20061;-63
2022/07/26 10:12:31;;;;;;;2.92;0.80;;;;;;;18.64;75.99;101581.44;5048424;28;20045;-64
2022/07/26 10:15:02;;;;;;;1.80;0.60;;;;;;;18.60;75.65;101580.75;5049525;28;20132;-64
2022/07/26 10:17:29;;;;;;;2.78;0.80;;;;;;;18.62;75.63;101586.00;5048032;28;20077;-64
2022/07/26 10:20:01;;;;;;;2.90;0.85;;;;;;;18.71;76.01;101585.53;5046919;28;20904;-64
2022/07/26 10:22:33;;;;;;;2.50;0.90;;;;;;;18.99;75.66;101594.78;5049517;28;20115;-64
2022/07/26 10:25:15;;;;;;;2.03;0.80;;;;;;;19.24;73.70;101593.41;5046113;28;20052;-64
2022/07/26 10:27:56;;;;;;;2.20;0.50;;;;;;;19.43;72.70;101589.75;5048079;28;20041;-64
2022/07/26 10:30:26;;;;;;;1.58;0.80;;;;;;;19.52;72.45;101586.56;5042029;28;20038;-64
2022/07/26 10:33:06;;;;;;;2.45;0.60;;;;;;;19.67;70.17;101593.69;5047145;28;20045;-63
2022/07/26 10:35:35;;;;;;;2.95;0.77;;;;;;;19.67;69.52;101593.69;5048090;28;20040;-63
2022/07/26 10:38:26;;;;;;;3.97;0.80;;;;;;;19.65;69.59;101600.94;5050689;28;20126;-64
2022/07/26 10:41:07;;;;;;;3.13;1.00;;;;;;;19.74;69.27;101594.22;5045966;28;20041;-65
2022/07/26 10:43:35;;;;;;;3.30;1.10;;;;;;;19.93;70.13;101590.50;5047955;28;20056;-65
2022/07/26 10:46:10;;;;;;;1.63;0.70;;;;;;;20.20;69.62;101590.72;5045323;28;20052;-65
2022/07/26 10:49:05;;;;;;;1.85;0.60;;;;;;;20.55;68.12;101585.03;5044644;28;20037;-66
2022/07/26 10:51:38;;;;;;;2.95;0.80;;;;;;;20.97;67.05;101584.31;5047042;28;20037;-66
2022/07/26 10:54:12;;;;;;;2.47;0.88;;;;;;;21.30;65.04;101589.41;5048550;28;20048;-65
2022/07/26 10:56:40;;;;;;;4.20;0.60;;;;;;;21.39;65.54;101591.47;5051008;28;20115;-66
2022/07/26 10:59:12;;;;;;;1.55;0.70;;;;;;;21.65;63.86;101596.16;5066509;28;20045;-65
2022/07/26 11:01:54;;;;;;;2.05;0.98;;;;;;;21.87;64.02;101590.22;5047038;28;20836;-65
2022/07/26 11:04:24;;;;;;;3.63;0.80;;;;;;;22.15;64.04;101591.03;5050128;28;20041;-65
2022/07/26 11:06:59;;;;;;;5.38;1.13;;;;;;;22.51;64.32;101596.72;5055109;28;20044;-65
2022/07/26 11:09:33;;;;;;;1.73;0.80;;;;;;;22.84;60.80;101588.09;5050867;28;20172;-65
2022/07/26 11:12:22;;;;;;;2.58;1.00;;;;;;;22.89;58.75;101598.56;5050864;28;20775;-65
2022/07/26 11:14:52;;;;;;;4.18;1.00;;;;;;;23.01;58.15;101589.59;5050912;28;20046;-65
2022/07/26 11:17:24;;;;;;;3.95;0.57;;;;;;;22.83;59.01;101591.78;5050551;28;20038;-65
2022/07/26 11:19:52;;;;;;;3.60;0.73;;;;;;;23.00;59.06;101592.41;5049153;28;20057;-65
2022/07/26 11:22:21;;;;;;;2.80;0.70;;;;;;;23.08;58.00;101596.28;5050255;28;20041;-65
2022/07/26 11:24:49;;;;;;;2.17;0.80;;;;;;;22.83;58.72;101599.88;5049934;28;20049;-66
2022/07/26 11:27:16;;;;;;;7.45;1.25;;;;;;;22.27;60.64;101600.94;5050420;28;20045;-65
2022/07/26 11:29:45;;;;;;;1.92;0.60;;;;;;;21.81;61.25;101612.09;5050578;28;20052;-65
2022/07/26 11:32:23;;;;;;;4.40;0.60;;;;;;;21.28;62.67;101607.41;5049754;28;20417;-64
2022/07/26 11:35:02;;;;;;;4.63;0.50;;;;;;;20.83;64.18;101611.97;5050710;28;20121;-64
2022/07/26 11:37:29;;;;;;;5.60;0.93;;;;;;;20.41;67.29;101622.50;5049339;28;20072;-65